< < Back
Terminal Aerodrome Forecast


Current Version              Previous Versions:   1  2  3  4  5  6  7  8  9  

Terminal Aerodrome Forecast

057
FTUS42 KJAX 251517 AAA
TAFSSI
TAF AMD
KSSI 251517Z 2515/2612 06010KT P6SM VCSH SCT015 BKN035
      TEMPO 2515/2517 BKN018
     FM252100 07009KT P6SM VCSH SCT050 BKN250
     FM260000 09007KT P6SM BKN250=



Latest METAR

064
SAUS70 KWBC 251500 RRL
MTRSSI
METAR KSSI 251453Z AUTO 35007KT 10SM BKN018 28/23 A3007 RMK AO2 SLP185
T02830228 51007


USA.gov is the U.S. government's official web portal to all federal, state and local government web resources and services.